Terminal Aerodrome Forecast
Issued by NWS Blacksburg, VA

Current Version | Previous Version | Text Only | Print | Product List | Glossary Off
Versions: 1 2 3 4 5 6 7 8 9 10 11 12 13 14 15 16 17 18 19 20 21 22

000
FTUS41 KRNK 290352 AAA
TAFBLF
TAF AMD
KBLF 290352Z 2904/2924 25006KT P6SM SCT070 OVC250
     FM290600 25008G16KT P6SM -SHRA BKN050 OVC080
      TEMPO 2909/2913 5SM -SHRA BR SCT015 BKN025 OVC050
     FM291400 29015G25KT P6SM -RA BKN015 OVC025
     FM291700 29015G25KT P6SM BKN023=

USA.gov is the U.S. government's official web portal to all federal, state and local government web resources and services.